createdAt,value
2022-11-02T00:00:46.588Z,85.60
2022-11-02T00:03:13.222Z,85.70
2022-11-02T00:05:39.827Z,86.70
2022-11-02T00:08:06.375Z,87.50
2022-11-02T00:10:32.962Z,88.60
2022-11-02T00:12:59.629Z,89.60
2022-11-02T00:15:27.964Z,90.30
2022-11-02T00:17:56.666Z,91.50
2022-11-02T00:20:23.846Z,91.60
2022-11-02T00:22:52.380Z,91.60
2022-11-02T00:25:20.489Z,91.60
2022-11-02T00:27:47.091Z,91.80
2022-11-02T00:30:13.753Z,92.40
2022-11-02T00:32:40.302Z,92.50
2022-11-02T00:35:07.051Z,92.60
2022-11-02T00:40:05.385Z,93.00
2022-11-02T00:42:31.925Z,93.00
2022-11-02T00:44:58.486Z,92.70
2022-11-02T00:47:25.042Z,92.30
2022-11-02T00:49:51.627Z,91.70
2022-11-02T00:52:18.190Z,92.10
2022-11-02T00:54:44.748Z,92.20
2022-11-02T00:57:11.271Z,92.20
2022-11-02T00:59:37.802Z,92.10
2022-11-02T01:02:04.431Z,92.20
2022-11-02T01:04:31.083Z,92.10
2022-11-02T01:06:57.642Z,92.10
2022-11-02T01:09:24.527Z,92.10
2022-11-02T01:11:51.616Z,92.20
2022-11-02T01:14:18.137Z,92.20
2022-11-02T01:19:16.406Z,92.60
2022-11-02T01:21:42.971Z,92.50
2022-11-02T01:24:09.514Z,92.30
2022-11-02T01:26:36.074Z,92.10
2022-11-02T01:29:02.634Z,91.90
2022-11-02T01:31:29.184Z,91.80
2022-11-02T01:33:55.723Z,91.80
2022-11-02T01:38:54.816Z,91.80
2022-11-02T01:41:21.784Z,91.80
2022-11-02T01:43:49.802Z,91.80
2022-11-02T01:46:18.660Z,91.80
2022-11-02T01:48:48.022Z,91.80
2022-11-02T01:51:18.161Z,91.80
2022-11-02T01:53:45.725Z,91.80
2022-11-02T01:56:13.664Z,91.80
2022-11-02T01:58:41.051Z,91.80
2022-11-02T02:01:07.890Z,91.80
2022-11-02T02:03:36.736Z,91.80
2022-11-02T02:06:06.558Z,91.20
2022-11-02T02:08:35.198Z,90.70
2022-11-02T02:11:01.763Z,90.40
2022-11-02T02:13:28.684Z,90.50
2022-11-02T02:16:10.695Z,90.50
2022-11-02T02:18:40.318Z,90.60
2022-11-02T02:21:25.739Z,90.60
2022-11-02T02:24:01.534Z,90.40
2022-11-02T02:26:28.129Z,90.70
2022-11-02T02:29:21.062Z,91.10
2022-11-02T02:31:59.890Z,91.70
2022-11-02T02:34:30.530Z,91.70
2022-11-02T02:37:26.624Z,91.70
2022-11-02T02:39:53.159Z,91.70
2022-11-02T02:42:25.700Z,91.70
2022-11-02T02:44:58.588Z,91.70
2022-11-02T02:47:27.761Z,91.70
2022-11-02T02:49:56.075Z,91.30
2022-11-02T02:52:23.919Z,91.80
2022-11-02T02:54:52.144Z,90.70
2022-11-02T02:57:20.913Z,90.60
2022-11-02T02:59:51.327Z,90.60
2022-11-02T03:02:37.142Z,90.80
2022-11-02T03:05:21.536Z,90.50
2022-11-02T03:07:48.266Z,89.70
2022-11-02T03:10:20.739Z,89.60
2022-11-02T03:13:05.098Z,88.80
2022-11-02T03:15:37.816Z,88.50
2022-11-02T03:18:14.606Z,88.00
2022-11-02T03:20:59.246Z,87.30
2022-11-02T03:23:29.386Z,88.10
2022-11-02T03:26:07.893Z,89.00
2022-11-02T03:28:53.254Z,90.20
2022-11-02T03:31:20.063Z,90.10
2022-11-02T03:33:53.577Z,90.70
2022-11-02T03:36:26.700Z,90.80
2022-11-02T03:38:56.093Z,90.80
2022-11-02T03:41:24.164Z,90.80
2022-11-02T03:43:53.093Z,90.80
2022-11-02T03:46:19.872Z,91.20
2022-11-02T03:48:47.930Z,91.00
2022-11-02T03:51:17.097Z,90.70
2022-11-02T03:53:49.637Z,90.80
2022-11-02T03:56:23.079Z,90.40
2022-11-02T03:58:49.612Z,90.40
2022-11-02T04:01:17.664Z,90.00
2022-11-02T04:03:45.385Z,90.00
2022-11-02T04:06:12.928Z,89.40
2022-11-02T04:08:41.595Z,90.00
2022-11-02T04:11:27.062Z,90.40
2022-11-02T04:14:12.431Z,90.70
2022-11-02T04:16:39.083Z,90.60
2022-11-02T04:19:24.006Z,90.20
2022-11-02T04:22:09.635Z,89.80
2022-11-02T04:24:54.644Z,88.90
2022-11-02T04:27:21.504Z,88.10
2022-11-02T04:29:48.281Z,87.10
2022-11-02T04:32:14.843Z,87.50
2022-11-02T04:34:41.370Z,87.80
2022-11-02T04:37:27.990Z,87.80
2022-11-02T04:39:54.574Z,88.00
2022-11-02T04:42:21.123Z,88.30
2022-11-02T04:44:47.641Z,88.70
2022-11-02T04:47:14.220Z,88.80
2022-11-02T04:49:40.743Z,88.40
2022-11-02T04:52:07.261Z,88.80
2022-11-02T04:54:33.818Z,89.90
2022-11-02T04:57:00.335Z,90.10
2022-11-02T04:59:26.904Z,90.50
2022-11-02T05:01:53.606Z,90.50
2022-11-02T05:04:20.226Z,90.80
2022-11-02T05:06:46.745Z,91.00
2022-11-02T05:09:13.307Z,91.60
2022-11-02T05:11:39.853Z,91.60
2022-11-02T05:14:06.364Z,91.60
2022-11-02T05:16:32.868Z,91.60
2022-11-02T05:18:59.411Z,91.60
2022-11-02T05:21:26.125Z,91.60
2022-11-02T05:23:52.650Z,91.60
2022-11-02T05:26:19.298Z,91.60
2022-11-02T05:28:45.874Z,91.60
2022-11-02T05:31:12.419Z,91.40
2022-11-02T05:33:39.059Z,91.20
2022-11-02T05:36:05.682Z,90.90
2022-11-02T05:38:32.302Z,91.00
2022-11-02T05:40:59.776Z,91.40
2022-11-02T05:43:26.375Z,91.60
2022-11-02T05:46:02.524Z,91.20
2022-11-02T05:48:31.609Z,91.10
2022-11-02T05:50:58.695Z,91.00
2022-11-02T05:53:26.732Z,91.00
2022-11-02T05:55:57.104Z,91.50
2022-11-02T05:58:24.311Z,91.40
2022-11-02T06:00:50.854Z,91.60
2022-11-02T06:03:17.825Z,91.50
2022-11-02T06:05:44.861Z,91.00
2022-11-02T06:08:11.468Z,91.00
2022-11-02T06:10:38.510Z,91.10
2022-11-02T06:13:05.364Z,90.80
2022-11-02T06:15:32.087Z,90.60
2022-11-02T06:17:58.774Z,90.30
2022-11-02T06:20:25.419Z,89.70
2022-11-02T06:22:52.034Z,89.00
2022-11-02T06:25:19.213Z,88.20
2022-11-02T06:27:53.054Z,88.30
2022-11-02T06:30:19.625Z,87.80
2022-11-02T06:32:47.069Z,86.80
2022-11-02T06:35:13.737Z,85.80
2022-11-02T06:37:40.269Z,85.80
2022-11-02T06:40:07.079Z,85.90
2022-11-02T06:42:36.889Z,86.60
2022-11-02T06:45:11.545Z,86.60
2022-11-02T06:47:38.493Z,87.80
2022-11-02T06:50:05.647Z,87.30
2022-11-02T06:52:32.289Z,87.80
2022-11-02T06:54:58.846Z,88.90
2022-11-02T06:57:25.438Z,88.70
2022-11-02T06:59:54.070Z,88.00
2022-11-02T07:02:21.975Z,86.40
2022-11-02T07:04:48.934Z,84.80
2022-11-02T07:07:15.478Z,83.30
2022-11-02T07:09:42.091Z,81.60
2022-11-02T07:12:08.678Z,81.70
2022-11-02T07:14:35.412Z,80.20
2022-11-02T07:17:02.130Z,78.00
2022-11-02T07:19:28.694Z,74.80
2022-11-02T07:21:55.441Z,72.80
2022-11-02T07:24:22.200Z,68.70
2022-11-02T07:26:50.001Z,65.40
2022-11-02T07:29:19.622Z,61.50
2022-11-02T07:31:46.201Z,57.40
2022-11-02T07:34:16.947Z,56.20
2022-11-02T07:36:44.095Z,54.30
2022-11-02T07:39:10.683Z,55.90
2022-11-02T07:41:37.324Z,57.70
2022-11-02T07:44:04.278Z,59.50
2022-11-02T07:46:30.793Z,59.20
2022-11-02T07:48:57.436Z,60.10
2022-11-02T07:51:24.095Z,60.70
2022-11-02T07:53:50.722Z,61.90
2022-11-02T07:56:17.262Z,61.80
2022-11-02T07:58:43.803Z,61.90
2022-11-02T08:01:10.345Z,57.40
2022-11-02T08:03:36.897Z,56.50
2022-11-02T08:06:03.517Z,48.10
2022-11-02T08:08:30.078Z,42.50
2022-11-02T08:11:02.650Z,39.00
2022-11-02T08:13:32.822Z,35.10
2022-11-02T08:15:59.605Z,36.50
2022-11-02T08:18:26.772Z,31.90
2022-11-02T08:20:56.459Z,31.80
2022-11-02T08:23:23.502Z,31.90
2022-11-02T08:25:50.680Z,35.70
2022-11-02T08:28:19.036Z,35.30
2022-11-02T08:30:45.604Z,32.50
2022-11-02T08:33:13.472Z,23.70
2022-11-02T08:35:40.518Z,18.90
2022-11-02T08:38:08.072Z,19.30
2022-11-02T08:40:35.018Z,19.50
2022-11-02T08:43:03.016Z,17.40
2022-11-02T08:45:53.786Z,16.40
2022-11-02T08:48:17.284Z,15.10
2022-11-02T08:50:43.834Z,14.50
2022-11-02T08:53:10.369Z,15.40
2022-11-02T08:55:36.924Z,17.70
2022-11-02T08:58:03.841Z,17.10
2022-11-02T09:00:31.375Z,18.00
2022-11-02T09:03:02.583Z,18.50
2022-11-02T09:05:30.109Z,19.20
2022-11-02T09:07:57.642Z,16.20
2022-11-02T09:10:24.570Z,15.20
2022-11-02T09:12:51.117Z,14.90
2022-11-02T09:15:17.750Z,14.40
2022-11-02T09:17:46.621Z,15.50
2022-11-02T09:20:13.603Z,17.40
2022-11-02T09:22:40.126Z,18.80
2022-11-02T09:25:06.931Z,19.00
2022-11-02T09:27:33.653Z,19.30
2022-11-02T09:30:00.273Z,16.40
2022-11-02T09:32:27.196Z,13.50
2022-11-02T09:34:53.734Z,12.30
2022-11-02T09:37:20.303Z,10.50
2022-11-02T09:39:46.826Z,6.30
2022-11-02T09:42:32.720Z,1.80
2022-11-02T09:45:01.653Z,1.00
2022-11-02T09:50:18.343Z,1.00
2022-11-02T09:52:46.377Z,1.00
2022-11-02T09:55:16.288Z,1.00
2022-11-02T09:57:45.101Z,1.00
2022-11-02T10:00:14.824Z,1.00
2022-11-02T10:03:04.694Z,1.00
2022-11-02T10:05:31.384Z,1.00
2022-11-02T10:08:15.744Z,1.00
2022-11-02T10:11:05.373Z,1.00
2022-11-02T10:13:38.593Z,1.00
2022-11-02T10:16:08.551Z,1.00
2022-11-02T10:18:36.029Z,1.00
2022-11-02T10:21:06.315Z,1.00
2022-11-02T10:23:45.892Z,1.00
2022-11-02T10:26:43.236Z,1.00
2022-11-02T10:29:18.111Z,1.00
2022-11-02T10:31:45.393Z,1.00
2022-11-02T10:34:14.790Z,1.00
2022-11-02T10:36:50.198Z,1.00
2022-11-02T10:39:32.862Z,1.00
2022-11-02T10:42:08.392Z,1.00
2022-11-02T10:44:47.621Z,1.00
2022-11-02T10:47:14.135Z,1.00
2022-11-02T10:49:40.698Z,1.00
2022-11-02T10:52:10.280Z,1.00
2022-11-02T10:54:36.803Z,1.00
2022-11-02T10:57:09.424Z,1.00
2022-11-02T10:59:35.998Z,1.00
2022-11-02T11:02:03.086Z,1.00
2022-11-02T11:04:30.897Z,1.00
2022-11-02T11:06:58.539Z,1.00
2022-11-02T11:09:32.286Z,26.50
2022-11-02T11:12:01.091Z,1.00
2022-11-02T11:20:24.790Z,1.00
2022-11-02T11:23:07.639Z,1.00
2022-11-02T11:25:34.291Z,1.00
2022-11-02T11:28:01.477Z,1.00
2022-11-02T11:31:00.405Z,1.00
2022-11-02T11:33:19.214Z,1.00
2022-11-02T11:35:48.686Z,1.00
2022-11-02T11:38:17.180Z,1.00
2022-11-02T11:40:44.948Z,1.00
2022-11-02T11:43:21.569Z,1.00
2022-11-02T11:45:57.318Z,1.00
2022-11-02T11:48:33.243Z,1.00
2022-11-02T11:51:01.530Z,1.00
2022-11-02T11:53:28.320Z,1.00
2022-11-02T11:55:57.841Z,1.00
2022-11-02T11:58:28.558Z,1.00
2022-11-02T12:01:10.292Z,1.00
2022-11-02T12:03:53.719Z,1.00
2022-11-02T12:06:24.413Z,1.00
2022-11-02T12:09:03.057Z,1.00
2022-11-02T12:11:39.798Z,1.00
2022-11-02T12:14:10.780Z,1.00
2022-11-02T12:16:56.505Z,1.00
2022-11-02T12:19:29.757Z,1.00
2022-11-02T12:22:05.785Z,1.00
2022-11-02T12:24:38.925Z,1.00
2022-11-02T12:27:41.619Z,1.00
2022-11-02T12:30:10.852Z,1.00
2022-11-02T12:32:43.017Z,1.00
2022-11-02T12:35:28.427Z,1.00
2022-11-02T12:37:56.211Z,1.00
2022-11-02T12:43:15.933Z,1.00
2022-11-02T12:45:49.738Z,1.00
2022-11-02T12:48:28.757Z,1.00
2022-11-02T12:51:02.706Z,1.00
2022-11-02T12:53:39.463Z,1.00
2022-11-02T12:56:07.923Z,1.00
2022-11-02T12:58:35.703Z,1.00
2022-11-02T13:01:13.890Z,1.00
2022-11-02T13:03:43.510Z,1.00
2022-11-02T13:06:13.179Z,1.00
2022-11-02T13:08:50.298Z,1.00
2022-11-02T13:11:20.110Z,1.00
2022-11-02T13:13:49.673Z,1.00
2022-11-02T13:16:17.650Z,1.00
2022-11-02T13:18:53.215Z,1.00
2022-11-02T13:21:24.423Z,1.00
2022-11-02T13:23:53.543Z,1.00
2022-11-02T13:26:28.602Z,1.00
2022-11-02T13:28:57.213Z,1.00
2022-11-02T13:31:33.777Z,1.00
2022-11-02T13:34:02.527Z,1.00
2022-11-02T13:36:29.119Z,1.00
2022-11-02T13:39:01.062Z,1.00
2022-11-02T13:41:33.520Z,1.00
2022-11-02T13:44:12.455Z,1.00
2022-11-02T13:46:57.657Z,1.00
2022-11-02T13:49:31.537Z,1.00
2022-11-02T13:52:09.381Z,1.00
2022-11-02T13:54:40.991Z,1.00
2022-11-02T13:57:20.513Z,1.00
2022-11-02T13:59:47.061Z,1.00
2022-11-02T14:02:16.611Z,1.00
2022-11-02T14:04:43.867Z,1.00
2022-11-02T14:07:32.426Z,1.00
2022-11-02T14:10:04.312Z,1.00
2022-11-02T14:12:41.839Z,1.00
2022-11-02T14:15:14.455Z,1.00
2022-11-02T14:17:53.067Z,1.00
2022-11-02T14:20:36.037Z,1.00
2022-11-02T14:23:12.026Z,1.00
2022-11-02T14:25:49.006Z,1.00
2022-11-02T14:28:21.826Z,1.00
2022-11-02T14:31:03.648Z,1.00
2022-11-02T14:33:30.183Z,1.00
2022-11-02T14:36:00.147Z,1.00
2022-11-02T14:38:46.984Z,1.00
2022-11-02T14:41:13.593Z,1.00
2022-11-02T14:43:46.250Z,1.00
2022-11-02T14:46:32.531Z,1.00
2022-11-02T14:48:59.858Z,1.00
2022-11-02T14:51:28.425Z,1.00
2022-11-02T14:53:56.948Z,1.00
2022-11-02T14:56:24.929Z,1.00
2022-11-02T14:58:54.473Z,1.00
2022-11-02T15:01:21.304Z,1.00
2022-11-02T15:03:48.636Z,1.00
2022-11-02T15:06:23.713Z,1.00
2022-11-02T15:08:53.282Z,1.00
2022-11-02T15:11:38.372Z,1.00
2022-11-02T15:14:25.400Z,1.00
2022-11-02T15:16:54.101Z,1.00
2022-11-02T15:19:40.507Z,1.00
2022-11-02T15:22:26.904Z,1.00
2022-11-02T15:24:54.137Z,1.00
2022-11-02T15:27:21.530Z,1.00
2022-11-02T15:29:48.146Z,1.00
2022-11-02T15:32:22.397Z,1.00
2022-11-02T15:34:50.525Z,1.00
2022-11-02T15:37:28.758Z,1.00
2022-11-02T15:39:56.803Z,1.00
2022-11-02T15:42:32.294Z,1.00
2022-11-02T15:45:14.319Z,1.00
2022-11-02T15:47:58.970Z,1.00
2022-11-02T15:50:44.791Z,1.00
2022-11-02T15:53:24.742Z,1.00
2022-11-02T15:56:00.573Z,1.00
2022-11-02T15:58:36.388Z,1.60
2022-11-02T16:01:05.800Z,3.20
2022-11-02T16:03:32.458Z,3.20
2022-11-02T16:06:03.178Z,4.50
2022-11-02T16:08:34.018Z,7.20
2022-11-02T16:11:04.963Z,8.70
2022-11-02T16:13:48.717Z,10.80
2022-11-02T16:16:21.051Z,12.20
2022-11-02T16:18:52.414Z,13.60
2022-11-02T16:21:20.199Z,14.50
2022-11-02T16:23:50.853Z,15.40
2022-11-02T16:26:24.555Z,15.60
2022-11-02T16:28:52.375Z,17.60
2022-11-02T16:31:20.803Z,18.40
2022-11-02T16:33:50.367Z,19.00
2022-11-02T16:36:20.938Z,18.60
2022-11-02T16:39:06.083Z,19.90
2022-11-02T16:41:33.700Z,20.60
2022-11-02T16:44:02.535Z,22.50
2022-11-02T16:46:30.921Z,22.80
2022-11-02T16:49:15.326Z,23.00
2022-11-02T16:51:47.962Z,24.20
2022-11-02T16:54:20.822Z,25.30
2022-11-02T16:56:48.635Z,25.70
2022-11-02T16:59:15.290Z,27.00
2022-11-02T17:01:43.736Z,29.20
2022-11-02T17:04:23.736Z,29.00
2022-11-02T17:06:52.355Z,29.90
2022-11-02T17:09:32.082Z,32.00
2022-11-02T17:12:00.484Z,33.70
2022-11-02T17:14:27.576Z,34.00
2022-11-02T17:16:59.889Z,34.70
2022-11-02T17:19:43.411Z,35.20
2022-11-02T17:22:15.734Z,35.90
2022-11-02T17:24:42.364Z,36.70
2022-11-02T17:27:27.242Z,37.30
2022-11-02T17:29:56.831Z,38.30
2022-11-02T17:32:23.459Z,38.50
2022-11-02T17:34:50.914Z,39.30
2022-11-02T17:37:24.793Z,39.20
2022-11-02T17:39:51.712Z,39.20
2022-11-02T17:42:37.168Z,39.10
2022-11-02T17:45:22.981Z,40.10
2022-11-02T17:47:49.653Z,40.90
2022-11-02T17:50:16.207Z,41.10
2022-11-02T17:52:42.823Z,42.20
2022-11-02T17:55:13.193Z,42.50
2022-11-02T17:57:39.744Z,43.10
2022-11-02T18:00:06.656Z,43.90
2022-11-02T18:02:33.293Z,46.20
2022-11-02T18:04:59.917Z,47.30
2022-11-02T18:07:26.463Z,47.90
2022-11-02T18:09:53.000Z,48.40
2022-11-02T18:12:19.592Z,49.20
2022-11-02T18:14:46.400Z,50.60
2022-11-02T18:17:12.945Z,50.50
2022-11-02T18:19:40.162Z,50.50
2022-11-02T18:22:06.827Z,50.50
2022-11-02T18:24:33.360Z,51.20
2022-11-02T18:26:59.913Z,52.20
2022-11-02T18:29:26.482Z,52.20
2022-11-02T18:31:53.008Z,52.40
2022-11-02T18:34:19.574Z,52.90
2022-11-02T18:36:46.130Z,53.60
2022-11-02T18:39:12.678Z,54.70
2022-11-02T18:41:40.393Z,56.40
2022-11-02T18:44:14.964Z,56.70
2022-11-02T18:46:42.176Z,99.90
2022-11-02T18:49:08.814Z,78.60
2022-11-02T18:51:35.397Z,68.20
2022-11-02T18:54:03.319Z,58.00
2022-11-02T18:56:30.253Z,50.00
2022-11-02T18:58:57.086Z,50.70
2022-11-02T19:01:24.727Z,54.40
2022-11-02T19:03:52.463Z,54.50
2022-11-02T19:06:37.883Z,56.70
2022-11-02T19:09:21.024Z,58.90
2022-11-02T19:11:53.891Z,60.50
2022-11-02T19:14:21.349Z,61.90
2022-11-02T19:16:48.009Z,60.90
2022-11-02T19:19:14.781Z,60.40
2022-11-02T19:21:41.598Z,60.40
2022-11-02T19:24:08.485Z,60.30
2022-11-02T19:26:35.449Z,60.30
2022-11-02T19:29:05.965Z,61.00
2022-11-02T19:31:33.810Z,62.00
2022-11-02T19:34:00.441Z,62.20
2022-11-02T19:36:27.215Z,65.20
2022-11-02T19:38:53.771Z,66.60
2022-11-02T19:41:21.607Z,67.60
2022-11-02T19:43:48.154Z,67.70
2022-11-02T19:46:15.951Z,67.50
2022-11-02T19:48:42.816Z,68.50
2022-11-02T19:51:19.054Z,68.70
2022-11-02T19:53:49.559Z,68.80
2022-11-02T19:56:16.698Z,68.80
2022-11-02T19:58:44.462Z,68.80
2022-11-02T20:01:12.633Z,67.50
2022-11-02T20:03:39.721Z,66.90
2022-11-02T20:06:07.660Z,67.60
2022-11-02T20:08:34.291Z,68.60
2022-11-02T20:11:14.251Z,68.60
2022-11-02T20:13:41.970Z,68.60
2022-11-02T20:16:09.531Z,68.60
2022-11-02T20:18:37.210Z,68.50
2022-11-02T20:21:11.765Z,68.50
2022-11-02T20:23:39.831Z,68.60
2022-11-02T20:26:11.585Z,68.50
2022-11-02T20:28:39.390Z,68.40
2022-11-02T20:31:08.032Z,69.60
2022-11-02T20:33:35.078Z,69.20
2022-11-02T20:36:01.645Z,69.70
2022-11-02T20:38:28.275Z,70.70
2022-11-02T20:40:54.826Z,73.70
2022-11-02T20:43:21.366Z,42.30
2022-11-02T20:45:47.883Z,24.20
2022-11-02T20:48:14.472Z,15.90
2022-11-02T20:50:41.063Z,7.30
2022-11-02T20:53:07.968Z,12.60
2022-11-02T20:55:34.835Z,14.60
2022-11-02T20:58:01.595Z,21.10
2022-11-02T21:00:28.148Z,20.30
2022-11-02T21:02:54.699Z,28.50
2022-11-02T21:05:21.246Z,39.80
2022-11-02T21:07:50.092Z,44.70
2022-11-02T21:10:16.659Z,50.00
2022-11-02T21:13:02.275Z,55.00
2022-11-02T21:15:29.044Z,58.30
2022-11-02T21:17:55.906Z,60.80
2022-11-02T21:20:34.179Z,62.20
2022-11-02T21:23:05.475Z,64.10
2022-11-02T21:25:33.110Z,66.20
2022-11-02T21:27:59.975Z,66.70
2022-11-02T21:30:27.014Z,68.40
2022-11-02T21:32:54.004Z,68.40
2022-11-02T21:35:20.901Z,69.10
2022-11-02T21:37:47.438Z,70.80
2022-11-02T21:40:14.370Z,71.50
2022-11-02T21:42:41.243Z,72.20
2022-11-02T21:45:08.045Z,73.10
2022-11-02T21:47:34.610Z,74.10
2022-11-02T21:50:01.801Z,74.70
2022-11-02T21:52:28.663Z,75.00
2022-11-02T21:54:55.268Z,74.20
2022-11-02T21:57:21.982Z,76.30
2022-11-02T21:59:48.589Z,76.90
2022-11-02T22:02:15.253Z,77.50
2022-11-02T22:04:41.914Z,77.90
2022-11-02T22:07:08.510Z,78.30
2022-11-02T22:09:35.058Z,79.10
2022-11-02T22:12:20.343Z,78.90
2022-11-02T22:14:46.984Z,78.20
2022-11-02T22:17:43.171Z,76.30
2022-11-02T22:20:00.396Z,77.50
2022-11-02T22:22:27.640Z,77.90
2022-11-02T22:24:54.170Z,78.00
2022-11-02T22:27:20.776Z,77.70
2022-11-02T22:29:47.318Z,76.10
2022-11-02T22:32:14.582Z,76.10
2022-11-02T22:34:43.433Z,76.10
2022-11-02T22:37:28.922Z,76.00
2022-11-02T22:39:55.477Z,76.00
2022-11-02T22:42:22.010Z,77.80
2022-11-02T22:44:48.552Z,79.20
2022-11-02T22:47:15.127Z,79.30
2022-11-02T22:49:41.706Z,80.10
2022-11-02T22:52:08.437Z,79.30
2022-11-02T22:54:34.963Z,80.00
2022-11-02T22:57:01.521Z,80.00
2022-11-02T22:59:28.074Z,81.30
2022-11-02T23:01:54.797Z,81.20
2022-11-02T23:04:21.535Z,80.80
2022-11-02T23:06:48.169Z,81.00
2022-11-02T23:09:14.789Z,80.40
2022-11-02T23:11:41.372Z,79.90
2022-11-02T23:14:17.578Z,79.40
2022-11-02T23:16:46.965Z,79.60
2022-11-02T23:19:23.542Z,78.30
2022-11-02T23:22:13.365Z,77.50
2022-11-02T23:25:02.538Z,77.00
2022-11-02T23:27:29.416Z,77.10
2022-11-02T23:30:14.878Z,76.40
2022-11-02T23:32:41.438Z,75.70
2022-11-02T23:35:26.629Z,76.70
2022-11-02T23:38:03.654Z,76.10
2022-11-02T23:40:30.464Z,75.50
2022-11-02T23:42:57.121Z,75.60
2022-11-02T23:45:23.807Z,76.10
2022-11-02T23:48:02.573Z,77.90
2022-11-02T23:50:49.541Z,79.40
2022-11-02T23:53:36.092Z,79.80
2022-11-02T23:56:22.350Z,80.90
2022-11-02T23:59:05.964Z,81.80
